createdAt,value
2022-11-12T00:04:12.730Z,22.98
2022-11-12T00:08:33.753Z,27.42
2022-11-12T00:12:55.493Z,17.58
2022-11-12T00:17:17.861Z,19.90
2022-11-12T00:21:38.912Z,25.92
2022-11-12T00:26:00.988Z,22.60
2022-11-12T00:30:22.255Z,25.38
2022-11-12T00:34:44.876Z,18.42
2022-11-12T00:39:06.321Z,25.08
2022-11-12T00:43:27.600Z,19.27
2022-11-12T00:47:49.344Z,18.52
2022-11-12T00:52:12.109Z,23.17
2022-11-12T00:56:35.617Z,20.17
2022-11-12T01:00:57.166Z,17.63
2022-11-12T01:05:18.940Z,19.23
2022-11-12T01:09:41.827Z,22.30
2022-11-12T01:14:05.276Z,24.40
2022-11-12T01:18:26.806Z,16.02
2022-11-12T01:22:48.482Z,14.82
2022-11-12T01:27:11.114Z,24.30
2022-11-12T01:31:34.567Z,17.10
2022-11-12T01:35:59.588Z,16.48
2022-11-12T01:40:20.867Z,16.45
2022-11-12T01:44:46.224Z,14.32
2022-11-12T01:49:12.459Z,21.20
2022-11-12T01:53:37.300Z,25.83
2022-11-12T01:58:05.615Z,23.48
2022-11-12T02:02:28.432Z,13.88
2022-11-12T02:06:52.071Z,17.25
2022-11-12T02:11:16.546Z,19.52
2022-11-12T02:15:39.044Z,12.70
2022-11-12T02:20:02.208Z,15.32
2022-11-12T02:24:36.778Z,14.70
2022-11-12T02:28:57.870Z,14.45
2022-11-12T02:33:19.159Z,16.23
2022-11-12T02:37:40.365Z,13.40
2022-11-12T02:42:02.733Z,11.07
2022-11-12T02:46:23.971Z,12.50
2022-11-12T02:50:45.145Z,11.88
2022-11-12T02:55:07.425Z,10.60
2022-11-12T02:59:29.863Z,11.30
2022-11-12T03:03:51.757Z,12.05
2022-11-12T03:08:13.325Z,11.88
2022-11-12T03:12:34.619Z,11.40
2022-11-12T03:16:57.022Z,11.82
2022-11-12T03:21:18.094Z,12.07
2022-11-12T03:25:39.467Z,10.63
2022-11-12T03:30:00.501Z,10.73
2022-11-12T03:34:23.073Z,9.50
2022-11-12T03:38:44.255Z,9.50
2022-11-12T03:43:05.420Z,9.55
2022-11-12T03:47:26.560Z,11.57
2022-11-12T03:51:49.087Z,12.00
2022-11-12T03:56:10.244Z,9.98
2022-11-12T04:00:31.674Z,9.95
2022-11-12T04:05:10.969Z,9.40
2022-11-12T04:09:33.754Z,10.32
2022-11-12T04:13:54.822Z,12.10
2022-11-12T04:18:33.517Z,9.93
2022-11-12T04:22:55.138Z,10.32
2022-11-12T04:27:19.658Z,12.10
2022-11-12T04:31:41.061Z,10.30
2022-11-12T04:36:02.189Z,13.68
2022-11-12T04:40:54.144Z,9.68
2022-11-12T04:45:17.086Z,11.35
2022-11-12T04:49:38.162Z,12.93
2022-11-12T04:53:59.369Z,11.02
2022-11-12T04:58:21.137Z,11.57
2022-11-12T05:02:43.659Z,25.13
2022-11-12T05:07:04.901Z,8.77
2022-11-12T05:11:25.986Z,20.63
2022-11-12T05:15:47.214Z,72.55
2022-11-12T05:20:11.085Z,25.40
2022-11-12T05:24:41.926Z,29.75
2022-11-12T05:29:08.566Z,10.25
2022-11-12T05:33:30.036Z,7.50
2022-11-12T05:37:52.573Z,20.10
2022-11-12T05:42:14.427Z,22.40
2022-11-12T05:46:35.686Z,8.82
2022-11-12T05:51:12.675Z,13.25
2022-11-12T05:55:37.185Z,9.23
2022-11-12T05:59:58.596Z,8.60
2022-11-12T06:04:19.609Z,7.75
2022-11-12T06:08:40.680Z,7.75
2022-11-12T06:13:03.343Z,17.50
2022-11-12T06:17:24.348Z,25.48
2022-11-12T06:21:45.459Z,22.88
2022-11-12T06:26:06.909Z,13.57
2022-11-12T06:30:29.865Z,15.65
2022-11-12T06:34:53.554Z,8.93
2022-11-12T06:39:14.906Z,14.43
2022-11-12T06:43:37.167Z,12.73
2022-11-12T06:48:00.156Z,25.33
2022-11-12T06:52:21.516Z,26.88
2022-11-12T06:56:42.778Z,23.20
2022-11-12T07:01:12.180Z,19.55
2022-11-12T07:05:37.103Z,10.70
2022-11-12T07:09:58.273Z,24.23
2022-11-12T07:14:19.529Z,10.55
2022-11-12T07:18:41.152Z,12.52
2022-11-12T07:23:03.768Z,28.70
2022-11-12T07:27:24.843Z,23.88
2022-11-12T07:31:46.371Z,11.20
2022-11-12T07:36:09.903Z,12.23
2022-11-12T07:40:32.798Z,10.13
2022-11-12T07:44:53.853Z,8.98
2022-11-12T07:49:15.023Z,13.10
2022-11-12T07:53:36.117Z,14.30
2022-11-12T07:58:01.193Z,9.93
2022-11-12T08:02:22.712Z,15.55
2022-11-12T08:06:43.995Z,11.45
2022-11-12T08:11:05.924Z,24.02
2022-11-12T08:15:28.958Z,7.00
2022-11-12T08:19:55.082Z,11.70
2022-11-12T08:24:16.319Z,22.47
2022-11-12T08:28:38.083Z,12.38
2022-11-12T08:33:03.240Z,26.65
2022-11-12T08:37:24.883Z,17.88
2022-11-12T08:41:46.122Z,17.40
2022-11-12T08:46:07.848Z,17.40
2022-11-12T08:50:30.803Z,16.25
2022-11-12T08:54:52.095Z,12.98
2022-11-12T08:59:13.638Z,13.27
2022-11-12T09:03:35.048Z,13.90
2022-11-12T09:08:00.993Z,8.75
2022-11-12T09:12:22.150Z,10.53
2022-11-12T09:16:43.381Z,11.48
2022-11-12T09:21:06.518Z,22.77
2022-11-12T09:25:29.351Z,19.67
2022-11-12T09:29:50.647Z,26.42
2022-11-12T09:34:11.776Z,16.60
2022-11-12T09:38:33.182Z,21.20
2022-11-12T09:42:55.951Z,9.02
2022-11-12T09:47:20.956Z,10.05
2022-11-12T09:51:46.176Z,10.95
2022-11-12T09:56:11.630Z,10.77
2022-11-12T10:00:34.685Z,11.52
2022-11-12T10:05:24.841Z,11.43
2022-11-12T10:09:58.975Z,8.68
2022-11-12T10:14:41.593Z,14.75
2022-11-12T10:19:25.637Z,22.95
2022-11-12T10:23:49.387Z,9.65
2022-11-12T10:28:20.881Z,11.25
2022-11-12T10:32:43.928Z,18.23
2022-11-12T10:37:08.806Z,19.90
2022-11-12T10:41:32.082Z,11.38
2022-11-12T10:45:53.335Z,14.10
2022-11-12T10:50:22.845Z,13.15
2022-11-12T10:54:49.665Z,17.80
2022-11-12T10:59:18.463Z,14.40
2022-11-12T11:03:48.368Z,14.98
2022-11-12T11:08:11.488Z,17.88
2022-11-12T11:12:35.364Z,12.20
2022-11-12T11:17:00.418Z,12.10
2022-11-12T11:21:41.824Z,17.45
2022-11-12T11:26:16.342Z,11.98
2022-11-12T11:30:49.713Z,13.23
2022-11-12T11:35:19.901Z,12.80
2022-11-12T11:39:52.219Z,13.38
2022-11-12T11:44:23.148Z,11.38
2022-11-12T11:49:46.756Z,19.90
2022-11-12T12:00:10.902Z,11.63
2022-11-12T12:04:45.813Z,12.48
2022-11-12T12:09:20.894Z,15.07
2022-11-12T12:13:54.082Z,13.48
2022-11-12T12:18:31.889Z,12.27
2022-11-12T12:22:58.493Z,17.02
2022-11-12T12:27:23.784Z,13.63
2022-11-12T12:31:52.009Z,12.45
2022-11-12T12:36:18.266Z,13.25
2022-11-12T12:40:45.691Z,14.90
2022-11-12T12:45:25.841Z,14.50
2022-11-12T12:49:48.580Z,11.45
2022-11-12T12:54:42.817Z,10.23
2022-11-12T12:59:20.413Z,11.90
2022-11-12T13:03:58.502Z,11.23
2022-11-12T13:08:24.162Z,15.88
2022-11-12T13:13:07.016Z,12.68
2022-11-12T13:17:52.865Z,12.30
2022-11-12T13:22:49.849Z,14.13
2022-11-12T13:27:11.271Z,12.15
2022-11-12T13:31:34.021Z,12.40
2022-11-12T13:36:24.708Z,16.20
2022-11-12T13:40:47.892Z,14.95
2022-11-12T13:45:13.142Z,15.07
2022-11-12T13:49:36.242Z,15.98
2022-11-12T13:53:59.415Z,22.15
2022-11-12T13:58:26.548Z,19.83
2022-11-12T14:02:51.491Z,14.85
2022-11-12T14:07:31.132Z,15.27
2022-11-12T14:12:16.848Z,16.67
2022-11-12T14:16:51.649Z,16.95
2022-11-12T14:21:17.674Z,15.35
2022-11-12T14:25:48.071Z,16.42
2022-11-12T14:30:16.363Z,18.98
2022-11-12T14:34:37.729Z,17.05
2022-11-12T14:39:00.238Z,17.17
2022-11-12T14:43:34.160Z,15.55
2022-11-12T14:47:58.135Z,18.05
2022-11-12T14:52:22.758Z,15.43
2022-11-12T14:56:47.500Z,19.80
2022-11-12T15:02:03.844Z,14.45
2022-11-12T15:06:12.292Z,19.80
2022-11-12T15:10:36.772Z,15.55
2022-11-12T15:15:09.078Z,19.92
2022-11-12T15:19:30.763Z,23.15
2022-11-12T15:23:59.407Z,20.77
2022-11-12T15:28:23.471Z,20.40
2022-11-12T15:32:45.468Z,30.15
2022-11-12T15:37:09.803Z,20.90
2022-11-12T15:41:35.181Z,22.77
2022-11-12T15:45:57.473Z,19.08
2022-11-12T15:50:21.585Z,21.05
2022-11-12T15:54:42.741Z,24.75
2022-11-12T15:59:05.571Z,36.58
2022-11-12T16:03:27.289Z,24.27
2022-11-12T16:07:48.653Z,20.65
2022-11-12T16:12:11.939Z,62.55
2022-11-12T16:16:34.877Z,23.88
2022-11-12T16:20:56.298Z,40.22
2022-11-12T16:25:17.974Z,44.58
2022-11-12T16:29:39.180Z,22.00
2022-11-12T16:34:01.594Z,31.40
2022-11-12T16:38:25.669Z,22.75
2022-11-12T16:42:46.795Z,26.38
2022-11-12T16:47:08.220Z,44.35
2022-11-12T16:51:30.705Z,25.17
2022-11-12T16:55:52.025Z,27.95
2022-11-12T17:00:14.876Z,31.00
2022-11-12T17:04:36.331Z,102.25
2022-11-12T17:08:58.866Z,49.47
2022-11-12T17:13:19.940Z,51.75
2022-11-12T17:17:41.110Z,37.55
2022-11-12T17:22:02.435Z,60.45
2022-11-12T17:26:24.924Z,40.58
2022-11-12T17:30:45.935Z,90.53
2022-11-12T17:35:08.096Z,54.28
2022-11-12T17:39:29.214Z,36.38
2022-11-12T17:43:54.889Z,29.52
2022-11-12T17:48:16.226Z,82.70
2022-11-12T17:52:37.249Z,111.45
2022-11-12T17:56:58.468Z,59.55
2022-11-12T18:01:23.906Z,31.45
2022-11-12T18:05:45.232Z,58.72
2022-11-12T18:10:06.900Z,37.83
2022-11-12T18:14:27.850Z,53.85
2022-11-12T18:18:50.873Z,130.80
2022-11-12T18:23:12.257Z,37.30
2022-11-12T18:27:33.550Z,45.95
2022-11-12T18:31:54.656Z,67.25
2022-11-12T18:36:19.374Z,30.50
2022-11-12T18:40:40.986Z,31.02
2022-11-12T18:45:01.999Z,51.88
2022-11-12T18:49:23.176Z,23.95
2022-11-12T18:53:46.185Z,40.38
2022-11-12T18:58:07.502Z,57.47
2022-11-12T19:02:28.577Z,30.63
2022-11-12T19:06:49.858Z,35.92
2022-11-12T19:11:15.099Z,37.20
2022-11-12T19:15:36.678Z,67.07
2022-11-12T19:19:57.948Z,27.88
2022-11-12T19:24:19.181Z,38.03
2022-11-12T19:28:42.144Z,34.75
2022-11-12T19:33:03.275Z,53.50
2022-11-12T19:37:33.479Z,31.77
2022-11-12T19:41:55.339Z,39.22
2022-11-12T19:46:18.759Z,35.28
2022-11-12T19:50:39.959Z,30.33
2022-11-12T19:55:01.257Z,22.58
2022-11-12T19:59:22.445Z,33.38
2022-11-12T20:03:45.446Z,21.90
2022-11-12T20:08:06.603Z,28.65
2022-11-12T20:12:29.783Z,56.47
2022-11-12T20:16:51.736Z,32.10
2022-11-12T20:21:15.105Z,24.17
2022-11-12T20:25:36.621Z,26.33
2022-11-12T20:29:57.668Z,24.83
2022-11-12T20:34:18.720Z,31.52
2022-11-12T20:38:42.977Z,25.17
2022-11-12T20:43:04.198Z,28.48
2022-11-12T20:47:29.438Z,25.83
2022-11-12T20:51:51.241Z,24.70
2022-11-12T20:56:15.405Z,27.60
2022-11-12T21:00:37.489Z,44.08
2022-11-12T21:04:58.839Z,48.05
2022-11-12T21:09:19.942Z,30.42
2022-11-12T21:13:43.099Z,37.22
2022-11-12T21:18:04.705Z,39.58
2022-11-12T21:22:26.373Z,56.42
2022-11-12T21:26:49.477Z,37.50
2022-11-12T21:31:15.201Z,24.02
2022-11-12T21:35:36.380Z,42.88
2022-11-12T21:39:57.441Z,48.13
2022-11-12T21:44:18.577Z,35.22
2022-11-12T21:48:41.146Z,26.92
2022-11-12T21:53:02.506Z,183.77
2022-11-12T21:57:23.556Z,29.17
2022-11-12T22:01:44.692Z,58.30
2022-11-12T22:06:08.167Z,52.22
2022-11-12T22:10:29.298Z,62.45
2022-11-12T22:14:50.426Z,85.75
2022-11-12T22:19:12.676Z,150.60
2022-11-12T22:23:35.989Z,111.38
2022-11-12T22:27:57.122Z,89.35
2022-11-12T22:32:18.356Z,136.82
2022-11-12T22:36:39.559Z,59.72
2022-11-12T22:41:07.010Z,128.48
2022-11-12T22:45:28.083Z,138.80
2022-11-12T22:49:49.457Z,67.40
2022-11-12T22:54:13.200Z,52.33
2022-11-12T22:58:37.357Z,139.73
2022-11-12T23:02:59.874Z,101.18
2022-11-12T23:07:21.082Z,75.63
2022-11-12T23:11:42.143Z,74.95
2022-11-12T23:16:07.637Z,39.45
2022-11-12T23:20:28.779Z,32.47
2022-11-12T23:24:49.894Z,66.57
2022-11-12T23:29:11.962Z,46.28
2022-11-12T23:33:34.419Z,51.10
2022-11-12T23:37:55.586Z,52.92
2022-11-12T23:42:16.776Z,43.05
2022-11-12T23:46:37.989Z,55.17
2022-11-12T23:51:06.251Z,38.92
2022-11-12T23:55:29.462Z,87.18
2022-11-12T23:59:50.642Z,41.53
